createdAt,value
2023-04-10T00:01:36.338Z,98.36
2023-04-10T00:04:05.177Z,97.87
2023-04-10T00:06:33.965Z,97.40
2023-04-10T00:09:02.315Z,97.20
2023-04-10T00:11:31.213Z,97.09
2023-04-10T00:13:59.436Z,97.29
2023-04-10T00:16:30.413Z,98.28
2023-04-10T00:19:00.179Z,98.34
2023-04-10T00:21:28.447Z,97.77
2023-04-10T00:23:58.746Z,98.50
2023-04-10T00:26:27.718Z,98.45
2023-04-10T00:28:56.526Z,98.30
2023-04-10T00:31:25.032Z,98.66
2023-04-10T00:33:53.951Z,98.71
2023-04-10T00:36:23.985Z,99.40
2023-04-10T00:38:52.140Z,99.31
2023-04-10T00:41:20.557Z,99.96
2023-04-10T00:43:48.823Z,99.77
2023-04-10T00:46:17.609Z,99.83
2023-04-10T00:48:46.370Z,99.95
2023-04-10T00:51:14.804Z,100.00
2023-04-10T00:53:45.480Z,100.00
2023-04-10T00:56:14.042Z,100.00
2023-04-10T00:58:42.245Z,100.00
2023-04-10T01:01:10.618Z,100.00
2023-04-10T01:03:40.805Z,100.00
2023-04-10T01:06:17.737Z,100.00
2023-04-10T01:08:58.768Z,100.00
2023-04-10T01:11:40.011Z,100.00
2023-04-10T01:14:17.846Z,100.00
2023-04-10T01:16:53.391Z,100.00
2023-04-10T01:19:32.667Z,100.00
2023-04-10T01:22:03.884Z,100.00
2023-04-10T01:24:51.711Z,100.00
2023-04-10T01:27:36.862Z,100.00
2023-04-10T01:30:13.518Z,100.00
2023-04-10T01:32:43.147Z,100.00
2023-04-10T01:35:14.461Z,100.00
2023-04-10T01:37:44.991Z,100.00
2023-04-10T01:40:17.895Z,100.00
2023-04-10T01:42:51.872Z,100.00
2023-04-10T01:45:25.010Z,100.00
2023-04-10T01:47:54.190Z,100.00
2023-04-10T01:50:24.602Z,100.00
2023-04-10T01:52:53.865Z,100.00
2023-04-10T01:55:23.021Z,100.00
2023-04-10T01:57:52.175Z,100.00
2023-04-10T02:00:22.867Z,100.00
2023-04-10T02:02:51.135Z,100.00
2023-04-10T02:05:20.349Z,100.00
2023-04-10T02:07:58.340Z,100.00
2023-04-10T02:10:32.723Z,100.00
2023-04-10T02:13:05.287Z,100.00
2023-04-10T02:15:37.921Z,100.00
2023-04-10T02:18:08.690Z,100.00
2023-04-10T02:20:37.679Z,100.00
2023-04-10T02:23:07.602Z,100.00
2023-04-10T02:25:36.508Z,100.00
2023-04-10T02:28:06.284Z,100.00
2023-04-10T02:30:36.231Z,100.00
2023-04-10T02:33:04.535Z,100.00
2023-04-10T02:35:33.001Z,100.00
2023-04-10T02:38:01.392Z,100.00
2023-04-10T02:40:29.761Z,100.00
2023-04-10T02:42:58.299Z,100.00
2023-04-10T02:45:28.008Z,100.00
2023-04-10T02:48:00.713Z,100.00
2023-04-10T02:50:30.669Z,100.00
2023-04-10T02:52:58.853Z,100.00
2023-04-10T02:55:27.211Z,100.00
2023-04-10T02:57:55.870Z,100.00
2023-04-10T03:00:24.585Z,100.00
2023-04-10T03:02:54.062Z,100.00
2023-04-10T03:05:24.095Z,100.00
2023-04-10T03:07:54.126Z,100.00
2023-04-10T03:10:22.609Z,100.00
2023-04-10T03:12:50.949Z,100.00
2023-04-10T03:15:19.370Z,100.00
2023-04-10T03:17:47.691Z,100.00
2023-04-10T03:20:16.758Z,100.00
2023-04-10T03:22:46.240Z,100.00
2023-04-10T03:25:14.536Z,100.00
2023-04-10T03:27:42.854Z,100.00
2023-04-10T03:30:11.722Z,100.00
2023-04-10T03:32:42.536Z,100.00
2023-04-10T03:35:11.163Z,100.00
2023-04-10T03:37:39.666Z,100.00
2023-04-10T03:40:11.363Z,100.00
2023-04-10T03:42:39.787Z,100.00
2023-04-10T03:45:08.819Z,100.00
2023-04-10T03:47:37.225Z,100.00
2023-04-10T03:50:06.266Z,100.00
2023-04-10T03:52:34.508Z,100.00
2023-04-10T03:55:02.743Z,100.00
2023-04-10T03:57:32.389Z,100.00
2023-04-10T04:00:00.539Z,100.00
2023-04-10T04:02:28.882Z,100.00
2023-04-10T04:05:00.640Z,100.00
2023-04-10T04:07:28.842Z,100.00
2023-04-10T04:09:57.149Z,100.00
2023-04-10T04:12:28.033Z,100.00
2023-04-10T04:14:58.423Z,100.00
2023-04-10T04:17:28.852Z,100.00
2023-04-10T04:19:57.367Z,100.00
2023-04-10T04:22:25.672Z,100.00
2023-04-10T04:24:53.995Z,100.00
2023-04-10T04:27:23.258Z,100.00
2023-04-10T04:29:51.614Z,100.00
2023-04-10T04:32:21.397Z,100.00
2023-04-10T04:34:49.815Z,100.00
2023-04-10T04:37:18.340Z,100.00
2023-04-10T04:39:49.684Z,100.00
2023-04-10T04:42:18.115Z,100.00
2023-04-10T04:44:46.323Z,100.00
2023-04-10T04:47:14.524Z,100.00
2023-04-10T04:49:44.020Z,100.00
2023-04-10T04:52:12.304Z,100.00
2023-04-10T04:54:40.941Z,100.00
2023-04-10T04:57:09.744Z,100.00
2023-04-10T04:59:38.558Z,100.00
2023-04-10T05:02:06.863Z,100.00
2023-04-10T05:04:35.106Z,100.00
2023-04-10T05:07:05.114Z,100.00
2023-04-10T05:09:33.368Z,100.00
2023-04-10T05:12:01.796Z,100.00
2023-04-10T05:14:30.011Z,100.00
2023-04-10T05:17:03.552Z,100.00
2023-04-10T05:19:32.426Z,100.00
2023-04-10T05:22:00.823Z,100.00
2023-04-10T05:24:30.444Z,100.00
2023-04-10T05:26:59.093Z,100.00
2023-04-10T05:29:27.329Z,100.00
2023-04-10T05:31:55.519Z,100.00
2023-04-10T05:34:23.773Z,100.00
2023-04-10T05:36:51.924Z,100.00
2023-04-10T05:39:20.584Z,100.00
2023-04-10T05:41:50.248Z,100.00
2023-04-10T05:44:18.339Z,100.00
2023-04-10T05:46:46.902Z,100.00
2023-04-10T05:49:15.518Z,100.00
2023-04-10T05:51:44.088Z,100.00
2023-04-10T05:54:12.589Z,100.00
2023-04-10T05:56:40.822Z,100.00
2023-04-10T05:59:10.337Z,100.00
2023-04-10T06:01:38.566Z,100.00
2023-04-10T06:04:06.906Z,100.00
2023-04-10T06:06:35.754Z,100.00
2023-04-10T06:09:04.166Z,100.00
2023-04-10T06:11:32.661Z,100.00
2023-04-10T06:14:00.978Z,100.00
2023-04-10T06:16:30.672Z,100.00
2023-04-10T06:19:00.120Z,100.00
2023-04-10T06:21:28.429Z,100.00
2023-04-10T06:23:56.896Z,100.00
2023-04-10T06:26:26.918Z,100.00
2023-04-10T06:28:55.794Z,100.00
2023-04-10T06:31:24.377Z,100.00
2023-04-10T06:33:54.152Z,100.00
2023-04-10T06:36:22.353Z,100.00
2023-04-10T06:38:50.568Z,100.00
2023-04-10T06:41:18.725Z,100.00
2023-04-10T06:43:47.182Z,100.00
2023-04-10T06:46:16.253Z,100.00
2023-04-10T06:48:45.016Z,100.00
2023-04-10T06:51:14.777Z,100.00
2023-04-10T06:53:43.007Z,100.00
2023-04-10T06:56:11.662Z,100.00
2023-04-10T06:58:39.832Z,100.00
2023-04-10T07:01:08.511Z,100.00
2023-04-10T07:03:37.084Z,100.00
2023-04-10T07:06:05.908Z,100.00
2023-04-10T07:08:35.883Z,100.00
2023-04-10T07:11:04.228Z,100.00
2023-04-10T07:13:32.496Z,99.84
2023-04-10T07:16:00.811Z,99.34
2023-04-10T07:18:29.523Z,98.53
2023-04-10T07:20:58.237Z,97.45
2023-04-10T07:23:27.525Z,97.31
2023-04-10T07:25:58.459Z,96.94
2023-04-10T07:28:27.018Z,96.47
2023-04-10T07:30:55.682Z,96.04
2023-04-10T07:33:23.883Z,95.64
2023-04-10T07:35:52.194Z,95.50
2023-04-10T07:38:21.263Z,95.31
2023-04-10T07:40:49.703Z,94.83
2023-04-10T07:43:19.403Z,95.14
2023-04-10T07:45:48.078Z,95.08
2023-04-10T07:48:16.470Z,94.96
2023-04-10T07:50:44.564Z,94.30
2023-04-10T07:53:12.788Z,94.40
2023-04-10T07:55:41.514Z,94.07
2023-04-10T07:58:10.113Z,94.04
2023-04-10T08:00:40.032Z,94.30
2023-04-10T08:03:08.648Z,94.51
2023-04-10T08:05:37.101Z,94.12
2023-04-10T08:08:05.519Z,93.66
2023-04-10T08:10:33.868Z,93.09
2023-04-10T08:13:02.299Z,93.13
2023-04-10T08:15:30.495Z,92.61
2023-04-10T08:18:00.441Z,92.26
2023-04-10T08:20:29.571Z,91.87
2023-04-10T08:23:09.231Z,91.25
2023-04-10T08:25:47.652Z,91.15
2023-04-10T08:28:16.056Z,90.94
2023-04-10T08:30:44.196Z,91.58
2023-04-10T08:33:14.062Z,91.41
2023-04-10T08:35:43.016Z,90.70
2023-04-10T08:38:14.303Z,88.46
2023-04-10T08:40:44.866Z,86.65
2023-04-10T08:43:13.361Z,84.01
2023-04-10T08:45:43.047Z,83.58
2023-04-10T08:48:15.265Z,82.78
2023-04-10T08:50:46.663Z,81.53
2023-04-10T08:53:16.680Z,81.14
2023-04-10T08:55:47.144Z,80.75
2023-04-10T08:58:17.140Z,80.00
2023-04-10T09:00:45.806Z,79.36
2023-04-10T09:03:17.189Z,77.98
2023-04-10T09:05:45.976Z,77.39
2023-04-10T09:08:16.792Z,76.87
2023-04-10T09:10:44.882Z,77.09
2023-04-10T09:13:13.599Z,77.54
2023-04-10T09:15:58.602Z,77.42
2023-04-10T09:18:46.302Z,77.26
2023-04-10T09:21:17.237Z,76.46
2023-04-10T09:23:47.290Z,75.62
2023-04-10T09:26:29.485Z,75.82
2023-04-10T09:29:00.223Z,74.88
2023-04-10T09:31:33.216Z,74.67
2023-04-10T09:34:14.879Z,74.36
2023-04-10T09:36:44.111Z,74.28
2023-04-10T09:39:13.510Z,74.01
2023-04-10T09:41:52.648Z,72.40
2023-04-10T09:44:30.693Z,72.80
2023-04-10T09:46:59.352Z,72.00
2023-04-10T09:49:29.037Z,71.66
2023-04-10T09:51:57.581Z,70.44
2023-04-10T09:54:38.412Z,66.69
2023-04-10T09:57:08.402Z,65.23
2023-04-10T09:59:42.949Z,62.62
2023-04-10T10:02:12.425Z,62.26
2023-04-10T10:04:45.670Z,62.92
2023-04-10T10:07:14.828Z,63.23
2023-04-10T10:09:44.289Z,62.75
2023-04-10T10:12:14.060Z,61.75
2023-04-10T10:14:50.727Z,60.99
2023-04-10T10:17:24.774Z,59.97
2023-04-10T10:20:01.584Z,61.37
2023-04-10T10:22:30.614Z,60.68
2023-04-10T10:25:00.726Z,59.98
2023-04-10T10:27:32.257Z,60.38
2023-04-10T10:30:08.520Z,60.42
2023-04-10T10:32:42.223Z,60.39
2023-04-10T10:35:12.215Z,59.90
2023-04-10T10:37:42.806Z,61.03
2023-04-10T10:40:18.957Z,61.59
2023-04-10T10:42:50.547Z,62.15
2023-04-10T10:45:22.909Z,61.89
2023-04-10T10:47:54.652Z,60.98
2023-04-10T10:50:25.001Z,62.29
2023-04-10T10:52:59.288Z,62.76
2023-04-10T10:55:37.364Z,60.74
2023-04-10T10:58:07.566Z,61.26
2023-04-10T11:01:10.499Z,58.95
2023-04-10T11:03:39.422Z,60.03
2023-04-10T11:06:12.887Z,60.50
2023-04-10T11:08:46.616Z,60.12
2023-04-10T11:11:19.056Z,60.33
2023-04-10T11:14:24.246Z,59.33
2023-04-10T11:16:52.594Z,59.29
2023-04-10T11:19:23.627Z,59.52
2023-04-10T11:22:10.265Z,59.73
2023-04-10T11:24:59.098Z,60.18
2023-04-10T11:27:49.446Z,60.62
2023-04-10T11:30:32.234Z,61.20
2023-04-10T11:33:02.046Z,61.18
2023-04-10T11:35:31.529Z,60.81
2023-04-10T11:38:19.089Z,60.71
2023-04-10T11:41:05.488Z,60.55
2023-04-10T11:43:36.165Z,60.43
2023-04-10T11:46:07.578Z,60.46
2023-04-10T11:48:37.097Z,60.91
2023-04-10T11:51:09.282Z,60.66
2023-04-10T11:53:39.418Z,60.57
2023-04-10T11:56:16.053Z,60.13
2023-04-10T11:58:44.806Z,59.71
2023-04-10T12:01:14.804Z,59.69
2023-04-10T12:03:44.864Z,59.41
2023-04-10T12:06:15.745Z,60.09
2023-04-10T12:08:49.492Z,59.83
2023-04-10T12:11:20.708Z,59.63
2023-04-10T12:13:49.637Z,58.36
2023-04-10T12:16:18.168Z,58.44
2023-04-10T12:18:46.530Z,57.59
2023-04-10T12:21:14.949Z,57.56
2023-04-10T12:23:44.743Z,56.85
2023-04-10T12:26:15.917Z,56.71
2023-04-10T12:28:52.831Z,56.33
2023-04-10T12:31:30.481Z,56.02
2023-04-10T12:33:59.156Z,56.17
2023-04-10T12:36:30.259Z,56.18
2023-04-10T12:39:01.859Z,56.50
2023-04-10T12:41:31.711Z,55.71
2023-04-10T12:44:11.480Z,55.47
2023-04-10T12:46:41.089Z,55.56
2023-04-10T12:49:13.818Z,55.30
2023-04-10T12:51:49.558Z,54.80
2023-04-10T12:54:33.473Z,52.33
2023-04-10T12:57:02.422Z,54.28
2023-04-10T12:59:31.459Z,54.31
2023-04-10T13:02:00.432Z,54.37
2023-04-10T13:04:32.750Z,54.21
2023-04-10T13:07:01.440Z,54.52
2023-04-10T13:09:29.604Z,54.20
2023-04-10T13:11:59.249Z,54.15
2023-04-10T13:14:27.974Z,54.57
2023-04-10T13:16:56.055Z,54.19
2023-04-10T13:19:24.186Z,54.22
2023-04-10T13:21:52.694Z,53.87
2023-04-10T13:24:23.512Z,55.19
2023-04-10T13:26:51.818Z,55.10
2023-04-10T13:29:21.950Z,55.23
2023-04-10T13:31:50.442Z,54.85
2023-04-10T13:34:18.578Z,54.83
2023-04-10T13:36:47.028Z,55.39
2023-04-10T13:39:15.216Z,55.92
2023-04-10T13:41:43.424Z,56.09
2023-04-10T13:44:12.148Z,56.64
2023-04-10T13:46:41.802Z,57.16
2023-04-10T13:49:10.212Z,57.43
2023-04-10T13:51:38.502Z,57.36
2023-04-10T13:54:06.567Z,57.09
2023-04-10T13:56:34.698Z,57.04
2023-04-10T13:59:03.413Z,57.02
2023-04-10T14:01:31.927Z,57.19
2023-04-10T14:04:01.620Z,58.06
2023-04-10T14:06:29.894Z,58.66
2023-04-10T14:08:58.360Z,58.98
2023-04-10T14:11:27.100Z,59.14
2023-04-10T14:13:55.923Z,59.91
2023-04-10T14:16:24.446Z,60.41
2023-04-10T14:18:53.150Z,60.73
2023-04-10T14:21:23.278Z,61.47
2023-04-10T14:23:51.437Z,62.14
2023-04-10T14:26:19.654Z,62.57
2023-04-10T14:28:47.851Z,62.17
2023-04-10T14:31:16.227Z,63.08
2023-04-10T14:33:44.413Z,63.27
2023-04-10T14:36:12.972Z,63.37
2023-04-10T14:38:42.810Z,63.74
2023-04-10T14:41:11.442Z,63.72
2023-04-10T14:43:39.912Z,63.48
2023-04-10T14:46:08.569Z,63.98
2023-04-10T14:48:36.760Z,65.03
2023-04-10T14:51:05.782Z,64.91
2023-04-10T14:53:34.031Z,65.30
2023-04-10T14:56:14.594Z,65.81
2023-04-10T14:58:44.017Z,66.23
2023-04-10T15:01:13.462Z,66.58
2023-04-10T15:03:41.889Z,66.78
2023-04-10T15:06:10.259Z,66.83
2023-04-10T15:08:38.498Z,67.59
2023-04-10T15:11:08.615Z,67.91
2023-04-10T15:13:37.893Z,69.16
2023-04-10T15:16:08.079Z,69.52
2023-04-10T15:18:36.744Z,70.04
2023-04-10T15:21:05.794Z,70.55
2023-04-10T15:23:34.051Z,71.40
2023-04-10T15:26:03.597Z,71.80
2023-04-10T15:28:33.313Z,71.78
2023-04-10T15:31:01.493Z,71.78
2023-04-10T15:33:29.745Z,72.50
2023-04-10T15:35:58.489Z,72.90
2023-04-10T15:38:28.806Z,73.26
2023-04-10T15:40:57.512Z,73.43
2023-04-10T15:43:25.688Z,73.37
2023-04-10T15:45:55.695Z,73.61
2023-04-10T15:48:24.840Z,74.59
2023-04-10T15:50:53.154Z,75.56
2023-04-10T15:53:21.305Z,75.92
2023-04-10T15:55:49.601Z,76.28
2023-04-10T15:58:17.981Z,76.57
2023-04-10T16:00:46.222Z,76.97
2023-04-10T16:03:16.028Z,77.17
2023-04-10T16:05:44.713Z,77.54
2023-04-10T16:08:13.020Z,77.86
2023-04-10T16:10:41.568Z,78.10
2023-04-10T16:13:10.276Z,78.68
2023-04-10T16:15:39.356Z,78.64
2023-04-10T16:18:09.068Z,78.76
2023-04-10T16:20:39.147Z,78.47
2023-04-10T16:23:07.243Z,78.19
2023-04-10T16:25:35.412Z,78.69
2023-04-10T16:28:06.588Z,78.29
2023-04-10T16:30:34.761Z,78.01
2023-04-10T16:33:03.073Z,77.98
2023-04-10T16:35:31.741Z,77.74
2023-04-10T16:38:01.639Z,77.55
2023-04-10T16:40:32.821Z,77.35
2023-04-10T16:43:02.088Z,77.21
2023-04-10T16:45:30.732Z,77.41
2023-04-10T16:47:58.927Z,77.21
2023-04-10T16:50:27.282Z,76.96
2023-04-10T16:52:55.558Z,76.76
2023-04-10T16:55:25.634Z,76.53
2023-04-10T16:57:54.071Z,75.84
2023-04-10T17:00:22.777Z,76.11
2023-04-10T17:02:50.972Z,76.13
2023-04-10T17:05:19.102Z,76.47
2023-04-10T17:07:47.200Z,76.22
2023-04-10T17:10:15.520Z,76.65
2023-04-10T17:12:45.914Z,76.56
2023-04-10T17:15:14.182Z,76.58
2023-04-10T17:17:42.634Z,76.63
2023-04-10T17:20:11.467Z,76.70
2023-04-10T17:22:40.774Z,76.81
2023-04-10T17:25:09.936Z,76.53
2023-04-10T17:27:40.371Z,76.07
2023-04-10T17:30:14.536Z,75.66
2023-04-10T17:32:43.678Z,75.61
2023-04-10T17:35:11.867Z,75.38
2023-04-10T17:37:40.118Z,75.08
2023-04-10T17:40:09.479Z,75.17
2023-04-10T17:42:37.582Z,75.53
2023-04-10T17:45:06.728Z,75.43
2023-04-10T17:47:36.794Z,75.37
2023-04-10T17:50:05.752Z,74.91
2023-04-10T17:52:34.210Z,75.05
2023-04-10T17:55:02.685Z,75.08
2023-04-10T17:57:30.886Z,74.98
2023-04-10T17:59:59.004Z,74.44
2023-04-10T18:02:27.497Z,73.62
2023-04-10T18:05:02.709Z,73.51
2023-04-10T18:07:30.988Z,73.25
2023-04-10T18:09:59.323Z,73.17
2023-04-10T18:12:28.057Z,72.93
2023-04-10T18:14:56.554Z,72.68
2023-04-10T18:17:24.874Z,72.33
2023-04-10T18:19:53.457Z,71.92
2023-04-10T18:22:23.301Z,71.55
2023-04-10T18:24:51.464Z,71.08
2023-04-10T18:27:19.876Z,71.14
2023-04-10T18:29:48.278Z,70.86
2023-04-10T18:32:16.454Z,70.46
2023-04-10T18:34:44.665Z,70.42
2023-04-10T18:37:13.019Z,70.15
2023-04-10T18:39:42.550Z,69.82
2023-04-10T18:42:11.977Z,69.82
2023-04-10T18:44:40.760Z,69.86
2023-04-10T18:47:11.154Z,69.85
2023-04-10T18:49:39.609Z,69.81
2023-04-10T18:52:08.484Z,69.96
2023-04-10T18:54:36.941Z,70.09
2023-04-10T18:57:07.475Z,70.86
2023-04-10T18:59:38.921Z,71.18
2023-04-10T19:02:09.269Z,71.64
2023-04-10T19:04:37.810Z,71.92
2023-04-10T19:07:06.028Z,72.85
2023-04-10T19:09:34.212Z,72.94
2023-04-10T19:12:02.786Z,73.16
2023-04-10T19:14:32.656Z,73.71
2023-04-10T19:17:06.127Z,73.83
2023-04-10T19:19:34.837Z,73.87
2023-04-10T19:22:03.121Z,74.07
2023-04-10T19:24:32.791Z,74.60
2023-04-10T19:27:02.614Z,74.63
2023-04-10T19:29:32.209Z,75.72
2023-04-10T19:32:00.792Z,76.05
2023-04-10T19:34:28.999Z,76.89
2023-04-10T19:36:57.151Z,76.95
2023-04-10T19:39:25.607Z,77.49
2023-04-10T19:41:57.239Z,78.22
2023-04-10T19:44:25.497Z,78.67
2023-04-10T19:46:55.618Z,79.11
2023-04-10T19:49:24.552Z,79.49
2023-04-10T19:51:53.349Z,79.54
2023-04-10T19:54:22.044Z,81.17
2023-04-10T19:56:50.252Z,81.81
2023-04-10T19:59:18.429Z,82.00
2023-04-10T20:01:47.187Z,82.75
2023-04-10T20:04:17.077Z,82.79
2023-04-10T20:06:45.617Z,83.29
2023-04-10T20:09:14.178Z,83.34
2023-04-10T20:11:42.505Z,84.50
2023-04-10T20:14:11.150Z,85.35
2023-04-10T20:16:41.246Z,86.11
2023-04-10T20:19:09.412Z,86.11
2023-04-10T20:21:39.029Z,87.16
2023-04-10T20:24:08.195Z,88.13
2023-04-10T20:26:36.630Z,88.64
2023-04-10T20:29:05.846Z,88.68
2023-04-10T20:31:34.896Z,88.72
2023-04-10T20:34:03.187Z,90.36
2023-04-10T20:36:32.439Z,91.08
2023-04-10T20:39:02.383Z,90.88
2023-04-10T20:41:30.592Z,90.52
2023-04-10T20:43:58.700Z,90.77
2023-04-10T20:46:27.873Z,91.31
2023-04-10T20:48:59.448Z,91.82
2023-04-10T20:51:30.740Z,92.09
2023-04-10T20:53:58.969Z,92.37
2023-04-10T20:56:36.871Z,92.23
2023-04-10T20:59:11.551Z,92.52
2023-04-10T21:01:39.862Z,92.57
2023-04-10T21:04:08.613Z,92.38
2023-04-10T21:06:37.070Z,92.56
2023-04-10T21:11:35.739Z,93.40
2023-04-10T21:14:04.035Z,93.34
2023-04-10T21:16:32.305Z,93.38
2023-04-10T21:19:00.635Z,93.30
2023-04-10T21:21:30.428Z,93.14
2023-04-10T21:23:58.736Z,93.53
2023-04-10T21:26:26.842Z,94.48
2023-04-10T21:28:56.917Z,93.45
2023-04-10T21:31:25.502Z,94.15
2023-04-10T21:33:53.648Z,93.85
2023-04-10T21:36:21.967Z,94.09
2023-04-10T21:38:50.144Z,93.47
2023-04-10T21:41:18.575Z,93.65
2023-04-10T21:43:46.987Z,94.26
2023-04-10T21:46:16.583Z,94.29
2023-04-10T21:48:44.661Z,94.16
2023-04-10T21:51:12.829Z,94.62
2023-04-10T21:53:41.203Z,95.01
2023-04-10T21:56:10.310Z,95.67
2023-04-10T21:58:39.602Z,95.23
2023-04-10T22:01:09.366Z,94.93
2023-04-10T22:03:39.216Z,96.16
2023-04-10T22:06:07.895Z,96.28
2023-04-10T22:08:38.420Z,96.11
2023-04-10T22:11:07.106Z,96.99
2023-04-10T22:13:35.392Z,98.05
2023-04-10T22:16:03.627Z,98.31
2023-04-10T22:18:32.129Z,98.75
2023-04-10T22:21:02.258Z,98.74
2023-04-10T22:23:30.403Z,100.00
2023-04-10T22:26:01.103Z,100.00
2023-04-10T22:28:29.879Z,100.00
2023-04-10T22:30:58.387Z,100.00
2023-04-10T22:33:26.855Z,100.00
2023-04-10T22:35:55.419Z,100.00
2023-04-10T22:38:25.333Z,100.00
2023-04-10T22:40:57.951Z,100.00
2023-04-10T22:43:26.636Z,100.00
2023-04-10T22:45:58.712Z,100.00
2023-04-10T22:48:26.916Z,100.00
2023-04-10T22:50:55.559Z,100.00
2023-04-10T22:53:26.049Z,100.00
2023-04-10T22:55:54.270Z,100.00
2023-04-10T22:58:22.535Z,100.00
2023-04-10T23:00:50.947Z,100.00
2023-04-10T23:03:19.228Z,100.00
2023-04-10T23:05:48.306Z,100.00
2023-04-10T23:08:16.659Z,100.00
2023-04-10T23:10:46.537Z,100.00
2023-04-10T23:13:15.130Z,100.00
2023-04-10T23:15:50.019Z,100.00
2023-04-10T23:18:18.499Z,100.00
2023-04-10T23:20:47.828Z,100.00
2023-04-10T23:23:16.337Z,100.00
2023-04-10T23:25:46.164Z,100.00
2023-04-10T23:28:14.897Z,100.00
2023-04-10T23:30:43.312Z,100.00
2023-04-10T23:33:11.569Z,100.00
2023-04-10T23:35:39.915Z,100.00
2023-04-10T23:38:08.385Z,100.00
2023-04-10T23:40:36.700Z,100.00
2023-04-10T23:43:07.053Z,100.00
2023-04-10T23:45:35.217Z,100.00
2023-04-10T23:48:03.525Z,100.00
2023-04-10T23:50:31.970Z,100.00
2023-04-10T23:53:00.803Z,100.00
2023-04-10T23:55:30.214Z,100.00
2023-04-10T23:57:58.999Z,100.00
